createdAt,value
2019-02-23T00:00:24.453Z,8.03
2019-02-23T00:02:55.187Z,8.06
2019-02-23T00:05:24.312Z,8.08
2019-02-23T00:07:53.430Z,8.01
2019-02-23T00:10:22.561Z,7.96
2019-02-23T00:12:51.707Z,8.06
2019-02-23T00:15:20.803Z,8.01
2019-02-23T00:17:49.923Z,7.89
2019-02-23T00:20:19.058Z,7.84
2019-02-23T00:22:48.179Z,7.88
2019-02-23T00:25:17.297Z,7.80
2019-02-23T00:27:46.424Z,7.80
2019-02-23T00:30:15.543Z,7.72
2019-02-23T00:32:44.664Z,7.71
2019-02-23T00:35:13.817Z,7.71
2019-02-23T00:37:42.933Z,7.64
2019-02-23T00:40:12.049Z,7.61
2019-02-23T00:42:41.174Z,7.56
2019-02-23T00:45:11.262Z,7.52
2019-02-23T00:47:40.377Z,7.45
2019-02-23T00:50:09.499Z,7.41
2019-02-23T00:52:38.618Z,7.34
2019-02-23T00:55:08.169Z,7.29
2019-02-23T00:57:37.290Z,7.26
2019-02-23T01:00:09.451Z,7.30
2019-02-23T01:02:39.074Z,7.30
2019-02-23T01:05:08.201Z,7.27
2019-02-23T01:07:37.498Z,7.23
2019-02-23T01:10:09.252Z,7.22
2019-02-23T01:12:38.377Z,7.18
2019-02-23T01:15:09.435Z,7.16
2019-02-23T01:17:38.562Z,7.13
2019-02-23T01:20:09.323Z,7.08
2019-02-23T01:22:38.441Z,7.10
2019-02-23T01:25:07.561Z,7.11
2019-02-23T01:27:36.684Z,7.08
2019-02-23T01:30:08.380Z,7.06
2019-02-23T01:32:37.517Z,7.04
2019-02-23T01:35:06.632Z,7.00
2019-02-23T01:37:35.755Z,6.97
2019-02-23T01:40:07.815Z,6.90
2019-02-23T01:42:36.933Z,6.87
2019-02-23T01:45:07.504Z,6.83
2019-02-23T01:47:36.617Z,6.78
2019-02-23T01:50:06.781Z,6.72
2019-02-23T01:52:35.900Z,6.72
2019-02-23T01:55:06.066Z,6.71
2019-02-23T01:57:35.421Z,6.73
2019-02-23T02:00:07.447Z,6.72
2019-02-23T02:02:36.639Z,6.69
2019-02-23T02:05:06.705Z,6.63
2019-02-23T02:07:35.822Z,6.58
2019-02-23T02:10:07.585Z,6.53
2019-02-23T02:12:36.774Z,6.47
2019-02-23T02:15:11.197Z,6.39
2019-02-23T02:17:40.319Z,6.39
2019-02-23T02:20:11.342Z,6.33
2019-02-23T02:22:40.425Z,6.32
2019-02-23T02:25:09.548Z,6.28
2019-02-23T02:27:38.662Z,6.24
2019-02-23T02:30:10.035Z,6.20
2019-02-23T02:32:39.154Z,6.20
2019-02-23T02:35:09.611Z,6.15
2019-02-23T02:37:38.732Z,6.13
2019-02-23T02:40:08.888Z,6.07
2019-02-23T02:42:38.012Z,6.10
2019-02-23T02:45:09.580Z,6.09
2019-02-23T02:47:38.700Z,6.12
2019-02-23T02:50:09.265Z,6.13
2019-02-23T02:52:38.392Z,6.14
2019-02-23T02:55:08.754Z,6.11
2019-02-23T02:57:37.876Z,6.06
2019-02-23T03:00:10.913Z,6.08
2019-02-23T03:02:40.298Z,6.06
2019-02-23T03:05:09.759Z,6.06
2019-02-23T03:07:38.907Z,6.05
2019-02-23T03:10:08.008Z,6.03
2019-02-23T03:12:37.149Z,5.99
2019-02-23T03:15:07.478Z,5.98
2019-02-23T03:17:36.606Z,5.87
2019-02-23T03:20:07.823Z,5.83
2019-02-23T03:22:37.884Z,5.78
2019-02-23T03:25:07.477Z,5.74
2019-02-23T03:27:36.611Z,5.71
2019-02-23T03:30:08.472Z,5.58
2019-02-23T03:32:37.595Z,5.60
2019-02-23T03:35:06.721Z,5.59
2019-02-23T03:37:35.843Z,5.53
2019-02-23T03:40:06.506Z,5.48
2019-02-23T03:42:35.645Z,5.42
2019-02-23T03:45:04.951Z,5.37
2019-02-23T03:47:34.146Z,5.22
2019-02-23T03:50:03.799Z,5.29
2019-02-23T03:52:32.928Z,5.29
2019-02-23T03:55:02.057Z,5.32
2019-02-23T03:57:31.176Z,5.28
2019-02-23T04:00:00.462Z,5.27
2019-02-23T04:02:29.606Z,5.27
2019-02-23T04:04:58.725Z,5.23
2019-02-23T04:07:27.845Z,5.19
2019-02-23T04:09:56.969Z,5.00
2019-02-23T04:12:26.096Z,5.05
2019-02-23T04:14:55.218Z,5.03
2019-02-23T04:17:24.691Z,4.98
2019-02-23T04:19:53.856Z,4.96
2019-02-23T04:22:22.934Z,4.96
2019-02-23T04:24:52.056Z,4.86
2019-02-23T04:27:21.197Z,4.83
2019-02-23T04:29:50.306Z,4.85
2019-02-23T04:32:19.429Z,4.81
2019-02-23T04:34:48.881Z,4.77
2019-02-23T04:37:18.005Z,4.75
2019-02-23T04:39:47.124Z,4.70
2019-02-23T04:42:16.248Z,4.63
2019-02-23T04:44:45.382Z,4.56
2019-02-23T04:47:14.493Z,4.54
2019-02-23T04:49:46.888Z,4.50
2019-02-23T04:52:16.003Z,4.53
2019-02-23T04:54:45.124Z,4.53
2019-02-23T04:57:14.263Z,4.52
2019-02-23T04:59:43.372Z,4.49
2019-02-23T05:02:12.834Z,4.48
2019-02-23T05:04:41.962Z,4.45
2019-02-23T05:07:11.078Z,4.45
2019-02-23T05:09:41.296Z,4.48
2019-02-23T05:12:10.416Z,4.55
2019-02-23T05:14:39.549Z,4.56
2019-02-23T05:17:08.665Z,4.64
2019-02-23T05:19:37.790Z,4.56
2019-02-23T05:22:06.918Z,4.58
2019-02-23T05:24:36.046Z,4.58
2019-02-23T05:27:05.163Z,4.59
2019-02-23T05:29:34.286Z,4.59
2019-02-23T05:32:03.418Z,4.58
2019-02-23T05:34:32.540Z,4.53
2019-02-23T05:37:01.657Z,4.54
2019-02-23T05:39:30.801Z,4.54
2019-02-23T05:41:59.917Z,4.54
2019-02-23T05:44:29.041Z,4.49
2019-02-23T05:46:58.244Z,4.54
2019-02-23T05:49:27.371Z,4.52
2019-02-23T05:51:56.485Z,4.52
2019-02-23T05:54:25.620Z,4.48
2019-02-23T05:56:54.741Z,4.53
2019-02-23T05:59:23.877Z,4.53
2019-02-23T06:01:52.990Z,4.47
2019-02-23T06:04:22.114Z,4.47
2019-02-23T06:06:52.208Z,4.49
2019-02-23T06:09:21.618Z,4.53
2019-02-23T06:11:50.741Z,4.50
2019-02-23T06:14:19.884Z,4.46
2019-02-23T06:16:49.004Z,4.50
2019-02-23T06:19:18.118Z,4.44
2019-02-23T06:21:53.617Z,4.44
2019-02-23T06:24:18.341Z,4.44
2019-02-23T06:26:47.718Z,4.44
2019-02-23T06:29:16.843Z,4.41
2019-02-23T06:31:45.968Z,4.41
2019-02-23T06:34:16.398Z,4.35
2019-02-23T06:36:45.916Z,4.36
2019-02-23T06:39:15.035Z,4.37
2019-02-23T06:41:44.472Z,4.38
2019-02-23T06:44:13.592Z,4.43
2019-02-23T06:46:42.971Z,4.48
2019-02-23T06:49:12.383Z,4.39
2019-02-23T06:51:41.509Z,4.42
2019-02-23T06:54:10.634Z,4.37
2019-02-23T06:56:39.999Z,4.42
2019-02-23T06:59:09.126Z,4.44
2019-02-23T07:01:38.575Z,4.39
2019-02-23T07:04:07.704Z,4.39
2019-02-23T07:06:36.835Z,4.46
2019-02-23T07:09:05.965Z,4.39
2019-02-23T07:11:35.165Z,4.43
2019-02-23T07:14:04.281Z,4.44
2019-02-23T07:16:33.415Z,4.42
2019-02-23T07:19:02.548Z,4.45
2019-02-23T07:21:31.667Z,4.49
2019-02-23T07:24:00.821Z,4.49
2019-02-23T07:26:29.954Z,4.45
2019-02-23T07:28:59.075Z,4.50
2019-02-23T07:31:28.210Z,4.58
2019-02-23T07:33:57.569Z,4.56
2019-02-23T07:36:26.953Z,4.48
2019-02-23T07:38:56.065Z,4.48
2019-02-23T07:41:25.199Z,4.49
2019-02-23T07:43:54.650Z,4.53
2019-02-23T07:46:23.797Z,4.49
2019-02-23T07:48:53.253Z,4.61
2019-02-23T07:51:22.370Z,4.65
2019-02-23T07:53:51.520Z,4.65
2019-02-23T07:56:20.633Z,4.67
2019-02-23T07:58:49.771Z,4.74
2019-02-23T08:01:18.882Z,4.82
2019-02-23T08:03:48.976Z,4.84
2019-02-23T08:06:18.098Z,4.88
2019-02-23T08:08:48.267Z,4.92
2019-02-23T08:11:17.382Z,4.96
2019-02-23T08:13:46.535Z,5.05
2019-02-23T08:16:15.883Z,5.03
2019-02-23T08:18:45.402Z,5.08
2019-02-23T08:21:14.612Z,5.03
2019-02-23T08:23:43.754Z,5.07
2019-02-23T08:26:12.962Z,5.14
2019-02-23T08:28:42.124Z,5.15
2019-02-23T08:31:13.275Z,5.18
2019-02-23T08:33:42.104Z,5.23
2019-02-23T08:36:11.261Z,5.31
2019-02-23T08:38:40.763Z,5.38
2019-02-23T08:41:09.953Z,5.43
2019-02-23T08:43:39.316Z,5.49
2019-02-23T08:46:08.486Z,5.56
2019-02-23T08:48:37.636Z,5.65
2019-02-23T08:51:07.041Z,5.69
2019-02-23T08:53:36.557Z,5.72
2019-02-23T08:56:05.985Z,5.74
2019-02-23T08:58:35.133Z,5.79
2019-02-23T09:01:04.568Z,5.83
2019-02-23T09:03:33.792Z,5.86
2019-02-23T09:06:02.935Z,5.94
2019-02-23T09:08:32.089Z,5.98
2019-02-23T09:11:01.225Z,6.00
2019-02-23T09:13:30.390Z,6.03
2019-02-23T09:15:59.795Z,6.10
2019-02-23T09:18:29.071Z,6.15
2019-02-23T09:20:58.363Z,6.25
2019-02-23T09:23:27.637Z,6.26
2019-02-23T09:25:57.796Z,6.36
2019-02-23T09:28:27.280Z,6.37
2019-02-23T09:30:59.288Z,6.40
2019-02-23T09:33:28.558Z,6.45
2019-02-23T09:35:57.776Z,6.51
2019-02-23T09:38:26.972Z,6.54
2019-02-23T09:40:57.094Z,6.60
2019-02-23T09:43:26.315Z,6.59
2019-02-23T09:45:55.574Z,6.69
2019-02-23T09:48:24.899Z,6.77
2019-02-23T09:50:54.121Z,6.87
2019-02-23T09:53:23.355Z,6.94
2019-02-23T09:55:52.648Z,6.97
2019-02-23T09:58:21.817Z,7.00
2019-02-23T10:00:51.120Z,7.11
2019-02-23T10:03:20.237Z,7.18
2019-02-23T10:05:49.449Z,7.29
2019-02-23T10:08:18.643Z,7.34
2019-02-23T10:10:47.867Z,7.44
2019-02-23T10:13:17.082Z,7.51
2019-02-23T10:15:46.255Z,7.56
2019-02-23T10:18:15.472Z,7.68
2019-02-23T10:20:44.633Z,7.84
2019-02-23T10:23:21.586Z,7.91
2019-02-23T10:25:44.651Z,8.01
2019-02-23T10:28:14.104Z,8.14
2019-02-23T10:30:43.259Z,8.36
2019-02-23T10:33:12.408Z,8.53
2019-02-23T10:35:41.883Z,8.68
2019-02-23T10:38:11.292Z,8.87
2019-02-23T10:40:40.680Z,9.03
2019-02-23T10:43:10.297Z,9.16
2019-02-23T10:45:39.459Z,9.43
2019-02-23T10:48:08.918Z,9.55
2019-02-23T10:50:38.067Z,9.77
2019-02-23T10:53:07.228Z,10.07
2019-02-23T10:55:37.557Z,10.42
2019-02-23T10:58:06.691Z,10.86
2019-02-23T11:00:36.347Z,11.28
2019-02-23T11:03:05.814Z,11.77
2019-02-23T11:05:34.975Z,12.37
2019-02-23T11:08:04.159Z,13.05
2019-02-23T11:10:33.286Z,14.23
2019-02-23T11:13:02.444Z,14.80
2019-02-23T11:15:31.763Z,16.43
2019-02-23T11:18:02.877Z,17.53
2019-02-23T11:20:31.831Z,18.73
2019-02-23T11:23:01.283Z,20.55
2019-02-23T11:25:30.441Z,21.20
2019-02-23T11:27:59.575Z,22.47
2019-02-23T11:30:28.728Z,22.89
2019-02-23T11:32:57.882Z,21.94
2019-02-23T11:35:27.033Z,23.23
2019-02-23T11:37:56.166Z,23.09
2019-02-23T11:40:25.317Z,22.64
2019-02-23T11:42:54.453Z,22.06
2019-02-23T11:45:23.606Z,21.38
2019-02-23T11:47:52.752Z,21.18
2019-02-23T11:50:21.910Z,20.91
2019-02-23T11:52:51.059Z,21.98
2019-02-23T11:55:20.321Z,22.35
2019-02-23T11:57:49.900Z,22.56
2019-02-23T12:00:19.223Z,22.14
2019-02-23T12:02:52.425Z,21.68
2019-02-23T12:05:19.318Z,21.68
2019-02-23T12:07:48.462Z,22.68
2019-02-23T12:10:17.612Z,23.30
2019-02-23T12:12:47.115Z,22.70
2019-02-23T12:15:16.493Z,20.12
2019-02-23T12:17:45.646Z,19.38
2019-02-23T12:20:14.806Z,18.77
2019-02-23T12:24:59.624Z,17.56
2019-02-23T12:27:28.786Z,17.97
2019-02-23T12:29:57.997Z,17.95
2019-02-23T12:32:27.179Z,17.77
2019-02-23T12:34:57.460Z,17.75
2019-02-23T12:37:26.912Z,17.70
2019-02-23T12:39:56.051Z,17.80
2019-02-23T12:42:27.550Z,17.83
2019-02-23T12:44:56.120Z,17.99
2019-02-23T12:47:25.275Z,18.25
2019-02-23T12:49:54.417Z,18.41
2019-02-23T12:52:23.570Z,18.40
2019-02-23T12:54:52.755Z,18.69
2019-02-23T12:57:22.168Z,19.03
2019-02-23T12:59:51.306Z,19.47
2019-02-23T13:02:20.475Z,19.93
2019-02-23T13:04:49.617Z,20.39
2019-02-23T13:07:18.840Z,20.90
2019-02-23T13:09:48.278Z,21.27
2019-02-23T13:12:32.551Z,21.40
2019-02-23T13:15:04.954Z,21.60
2019-02-23T13:17:54.216Z,21.85
2019-02-23T13:20:35.506Z,22.05
2019-02-23T13:23:07.966Z,22.00
2019-02-23T13:25:58.269Z,22.24
2019-02-23T13:28:36.476Z,22.37
2019-02-23T13:31:17.768Z,22.62
2019-02-23T13:34:02.098Z,22.82
2019-02-23T13:36:55.408Z,22.94
2019-02-23T13:39:44.125Z,23.20
2019-02-23T13:42:40.542Z,23.48
2019-02-23T13:45:18.681Z,23.68
2019-02-23T13:48:09.377Z,23.72
2019-02-23T13:51:01.322Z,23.37
2019-02-23T13:53:58.994Z,23.36
2019-02-23T13:56:54.133Z,23.68
2019-02-23T13:59:50.583Z,23.53
2019-02-23T14:02:37.830Z,23.49
2019-02-23T14:05:31.460Z,23.39
2019-02-23T14:08:19.090Z,23.43
2019-02-23T14:11:09.420Z,22.78
2019-02-23T14:13:59.529Z,22.63
2019-02-23T14:16:43.865Z,22.26
2019-02-23T14:19:31.357Z,22.07
2019-02-23T14:22:27.605Z,21.45
2019-02-23T14:25:19.545Z,21.28
2019-02-23T14:28:06.752Z,20.92
2019-02-23T14:30:59.400Z,20.28
2019-02-23T14:34:03.435Z,20.10
2019-02-23T14:36:41.777Z,19.69
2019-02-23T14:39:23.187Z,19.13
2019-02-23T14:42:07.900Z,19.05
2019-02-23T14:45:04.258Z,18.77
2019-02-23T14:47:39.697Z,18.50
2019-02-23T14:50:20.810Z,18.17
2019-02-23T14:52:53.217Z,17.92
2019-02-23T14:55:31.039Z,17.68
2019-02-23T14:58:12.033Z,17.77
2019-02-23T15:00:50.124Z,17.75
2019-02-23T15:03:38.995Z,17.64
2019-02-23T15:06:14.099Z,17.39
2019-02-23T15:08:55.947Z,17.39
2019-02-23T15:11:28.334Z,17.24
2019-02-23T15:14:26.061Z,17.14
2019-02-23T15:17:12.930Z,16.90
2019-02-23T15:20:10.591Z,16.69
2019-02-23T15:22:58.202Z,16.48
2019-02-23T15:25:48.260Z,16.36
2019-02-23T15:28:37.459Z,16.34
2019-02-23T15:31:03.466Z,16.31
2019-02-23T15:33:52.064Z,16.32
2019-02-23T15:36:27.141Z,16.40
2019-02-23T15:39:05.364Z,16.42
2019-02-23T15:41:54.488Z,16.43
2019-02-23T15:44:35.666Z,16.20
2019-02-23T15:47:22.371Z,15.99
2019-02-23T15:49:51.474Z,15.82
2019-02-23T15:52:20.846Z,15.67
2019-02-23T15:54:50.155Z,15.50
2019-02-23T15:57:19.275Z,15.37
2019-02-23T15:59:48.390Z,15.23
2019-02-23T16:02:17.525Z,15.17
2019-02-23T16:04:46.647Z,15.14
2019-02-23T16:07:16.002Z,15.06
2019-02-23T16:09:45.119Z,14.88
2019-02-23T16:12:14.240Z,14.74
2019-02-23T16:14:43.364Z,14.55
2019-02-23T16:17:12.469Z,14.48
2019-02-23T16:19:41.591Z,14.42
2019-02-23T16:22:10.713Z,14.41
2019-02-23T16:24:39.827Z,14.33
2019-02-23T16:27:08.944Z,14.25
2019-02-23T16:29:38.808Z,14.09
2019-02-23T16:32:08.169Z,13.89
2019-02-23T16:34:37.286Z,13.70
2019-02-23T16:37:06.419Z,13.55
2019-02-23T16:39:35.799Z,13.44
2019-02-23T16:42:04.927Z,13.33
2019-02-23T16:44:34.043Z,13.22
2019-02-23T16:47:03.175Z,13.10
2019-02-23T16:49:32.337Z,12.98
2019-02-23T16:52:01.519Z,12.91
2019-02-23T16:54:30.688Z,12.79
2019-02-23T16:57:00.212Z,12.69
2019-02-23T16:59:30.218Z,12.62
2019-02-23T17:01:59.351Z,12.51
2019-02-23T17:04:28.639Z,12.44
2019-02-23T17:06:57.915Z,12.30
2019-02-23T17:09:27.050Z,12.17
2019-02-23T17:11:56.165Z,12.12
2019-02-23T17:14:25.312Z,11.99
2019-02-23T17:16:54.709Z,12.00
2019-02-23T17:19:23.822Z,11.93
2019-02-23T17:21:53.192Z,11.88
2019-02-23T17:24:22.321Z,11.79
2019-02-23T17:26:51.450Z,11.69
2019-02-23T17:29:20.588Z,11.62
2019-02-23T17:31:49.707Z,11.53
2019-02-23T17:34:18.827Z,11.41
2019-02-23T17:36:47.946Z,11.35
2019-02-23T17:39:17.320Z,11.29
2019-02-23T17:41:46.488Z,11.23
2019-02-23T17:44:15.842Z,11.17
2019-02-23T17:46:48.385Z,11.08
2019-02-23T17:49:15.793Z,10.98
2019-02-23T17:51:45.152Z,10.94
2019-02-23T17:54:14.510Z,10.95
2019-02-23T17:56:43.940Z,10.92
2019-02-23T17:59:14.042Z,10.88
2019-02-23T18:01:43.171Z,10.81
2019-02-23T18:04:12.320Z,10.77
2019-02-23T18:06:41.456Z,10.70
2019-02-23T18:09:10.582Z,10.55
2019-02-23T18:11:40.007Z,10.41
2019-02-23T18:14:09.373Z,10.29
2019-02-23T18:16:38.752Z,10.18
2019-02-23T18:19:07.881Z,10.08
2019-02-23T18:21:37.073Z,9.97
2019-02-23T18:24:06.330Z,9.87
2019-02-23T18:26:35.447Z,9.72
2019-02-23T18:29:04.565Z,9.61
2019-02-23T18:31:33.996Z,9.48
2019-02-23T18:34:03.417Z,9.38
2019-02-23T18:36:32.598Z,9.30
2019-02-23T18:39:01.717Z,9.24
2019-02-23T18:41:32.464Z,9.19
2019-02-23T18:44:01.583Z,9.14
2019-02-23T18:46:30.874Z,9.10
2019-02-23T18:49:00.000Z,8.96
2019-02-23T18:51:29.187Z,8.93
2019-02-23T18:53:58.359Z,8.91
2019-02-23T18:56:29.666Z,8.87
2019-02-23T18:58:58.309Z,8.79
2019-02-23T19:01:27.418Z,8.79
2019-02-23T19:03:56.797Z,8.71
2019-02-23T19:06:25.977Z,8.68
2019-02-23T19:08:55.346Z,8.64
2019-02-23T19:11:24.465Z,8.54
2019-02-23T19:13:53.825Z,8.54
2019-02-23T19:16:23.445Z,8.52
2019-02-23T19:18:52.554Z,8.49
2019-02-23T19:21:21.670Z,8.48
2019-02-23T19:23:50.871Z,8.44
2019-02-23T19:26:19.987Z,8.49
2019-02-23T19:28:49.345Z,8.51
2019-02-23T19:31:18.684Z,8.46
2019-02-23T19:33:47.882Z,8.42
2019-02-23T19:36:16.997Z,8.42
2019-02-23T19:38:46.124Z,8.40
2019-02-23T19:41:15.227Z,8.34
2019-02-23T19:43:44.360Z,8.29
2019-02-23T19:46:13.476Z,8.26
2019-02-23T19:48:42.670Z,8.23
2019-02-23T19:51:11.780Z,8.22
2019-02-23T19:53:42.013Z,8.17
2019-02-23T19:56:11.164Z,8.10
2019-02-23T19:58:40.772Z,8.05
2019-02-23T20:01:10.984Z,8.00
2019-02-23T20:03:40.610Z,7.99
2019-02-23T20:06:09.776Z,7.93
2019-02-23T20:08:38.967Z,7.88
2019-02-23T20:11:08.122Z,7.81
2019-02-23T20:13:37.463Z,7.80
2019-02-23T20:16:06.584Z,7.83
2019-02-23T20:18:35.781Z,7.84
2019-02-23T20:21:04.897Z,7.83
2019-02-23T20:23:34.178Z,7.77
2019-02-23T20:26:03.305Z,7.83
2019-02-23T20:28:32.504Z,7.80
2019-02-23T20:31:01.617Z,7.81
2019-02-23T20:33:30.986Z,7.81
2019-02-23T20:36:00.114Z,7.79
2019-02-23T20:38:29.239Z,7.84
2019-02-23T20:40:58.371Z,7.82
2019-02-23T20:43:27.488Z,7.79
2019-02-23T20:45:56.615Z,7.76
2019-02-23T20:48:25.976Z,7.80
2019-02-23T20:50:55.103Z,7.79
2019-02-23T20:53:24.496Z,7.75
2019-02-23T20:55:53.629Z,7.72
2019-02-23T20:58:22.752Z,7.61
2019-02-23T21:00:51.885Z,7.71
2019-02-23T21:03:21.001Z,7.67
2019-02-23T21:05:50.128Z,7.67
2019-02-23T21:08:19.245Z,7.67
2019-02-23T21:10:48.678Z,7.67
2019-02-23T21:13:17.793Z,7.68
2019-02-23T21:15:46.912Z,7.64
2019-02-23T21:18:16.028Z,7.63
2019-02-23T21:20:45.151Z,7.63
2019-02-23T21:23:14.270Z,7.49
2019-02-23T21:25:43.403Z,7.46
2019-02-23T21:28:12.532Z,7.51
2019-02-23T21:30:41.651Z,7.49
2019-02-23T21:33:10.780Z,7.45
2019-02-23T21:35:39.969Z,7.49
2019-02-23T21:38:09.116Z,7.48
2019-02-23T21:40:38.234Z,7.48
2019-02-23T21:43:07.359Z,7.49
2019-02-23T21:45:36.473Z,7.52
2019-02-23T21:48:05.608Z,7.51
2019-02-23T21:50:34.724Z,7.48
2019-02-23T21:53:03.923Z,7.39
2019-02-23T21:55:34.110Z,7.41
2019-02-23T21:58:03.371Z,7.35
2019-02-23T22:00:32.570Z,7.27
2019-02-23T22:03:01.931Z,7.29
2019-02-23T22:05:31.054Z,7.31
2019-02-23T22:08:00.569Z,7.28
2019-02-23T22:10:29.756Z,7.24
2019-02-23T22:12:58.881Z,7.25
2019-02-23T22:15:28.251Z,7.20
2019-02-23T22:17:57.701Z,7.22
2019-02-23T22:20:26.849Z,7.20
2019-02-23T22:22:55.994Z,7.14
2019-02-23T22:25:25.129Z,7.21
2019-02-23T22:27:54.553Z,7.20
2019-02-23T22:30:23.684Z,7.19
2019-02-23T22:32:52.803Z,7.19
2019-02-23T22:35:21.937Z,7.14
2019-02-23T22:37:51.050Z,7.17
2019-02-23T22:40:20.169Z,7.12
2019-02-23T22:42:49.291Z,7.06
2019-02-23T22:45:19.483Z,7.02
2019-02-23T22:47:48.602Z,7.04
2019-02-23T22:50:17.867Z,7.03
2019-02-23T22:52:47.225Z,6.99
2019-02-23T22:55:16.410Z,7.04
2019-02-23T22:57:45.499Z,6.98
2019-02-23T23:00:16.507Z,6.96
2019-02-23T23:02:47.281Z,6.89
2019-02-23T23:05:16.485Z,6.89
2019-02-23T23:07:45.642Z,6.89
2019-02-23T23:10:15.981Z,6.86
2019-02-23T23:12:45.110Z,6.86
2019-02-23T23:15:14.231Z,6.85
2019-02-23T23:17:43.578Z,6.79
2019-02-23T23:20:12.768Z,6.78
2019-02-23T23:22:41.891Z,6.72
2019-02-23T23:25:11.078Z,6.70
2019-02-23T23:27:48.921Z,6.69
2019-02-23T23:30:11.918Z,6.75
2019-02-23T23:32:41.503Z,6.71
2019-02-23T23:35:10.575Z,6.68
2019-02-23T23:37:39.697Z,6.66
2019-02-23T23:40:08.841Z,6.65
2019-02-23T23:42:38.129Z,6.59
2019-02-23T23:45:07.384Z,6.64
2019-02-23T23:47:38.645Z,6.71
2019-02-23T23:50:09.386Z,6.59
2019-02-23T23:52:38.508Z,6.53
2019-02-23T23:55:07.636Z,6.50
2019-02-23T23:57:37.078Z,6.49
